Time;durP1;ratioP1;P1;durP2;ratioP2;P2;SDS_P1;SDS_P2;PMS_P1;PMS_P2;Temp;Humidity;BMP_temperature;BMP_pressure;BME280_temperature;BME280_humidity;BME280_pressure;Samples;Min_cycle;Max_cycle;Signal;HPM_P1;HPM_P2
2021/05/14 00:02:43;;;;;;;1999.90;999.90;;;;;;;12.98;100.00;-18254.09;5117907;28;20199;-37
2021/05/14 00:05:35;;;;;;;1999.90;999.90;;;;;;;12.95;100.00;-18253.28;5118639;28;20462;-36
2021/05/14 00:08:21;;;;;;;1999.90;999.90;;;;;;;12.90;100.00;-18251.97;5118447;28;20183;-35
2021/05/14 00:11:07;;;;;;;1999.90;999.90;;;;;;;12.92;100.00;-18252.50;5118746;28;20657;-37
2021/05/14 00:13:58;;;;;;;1999.90;999.90;;;;;;;12.97;100.00;-18253.97;5118506;28;20254;-39
2021/05/14 00:16:45;;;;;;;1999.90;999.90;;;;;;;12.97;100.00;-18253.81;5118126;28;20194;-36
2021/05/14 00:19:31;;;;;;;1999.90;999.90;;;;;;;12.90;100.00;-18251.97;5117814;28;20495;-39
2021/05/14 00:22:20;;;;;;;1999.90;999.90;;;;;;;12.86;100.00;-18251.03;5118202;28;20418;-37
2021/05/14 00:25:08;;;;;;;1999.90;999.90;;;;;;;12.94;100.00;-18253.03;5118624;28;20202;-38
2021/05/14 00:27:54;;;;;;;1999.90;999.90;;;;;;;12.81;100.00;-18249.69;5118150;28;20214;-39
2021/05/14 00:30:42;;;;;;;1999.90;999.90;;;;;;;12.88;100.00;-18251.41;5116745;28;20197;-38
2021/05/14 00:33:28;;;;;;;1999.90;999.90;;;;;;;12.81;100.00;-18249.56;5117352;28;20198;-37
2021/05/14 00:36:16;;;;;;;1999.90;999.90;;;;;;;12.77;100.00;-18248.75;5118360;28;20259;-38
2021/05/14 00:39:03;;;;;;;1999.90;999.90;;;;;;;12.75;100.00;-18248.09;5118265;28;20204;-38
2021/05/14 00:41:51;;;;;;;1999.90;999.90;;;;;;;12.85;100.00;-18250.63;5117439;28;20198;-38
2021/05/14 00:44:41;;;;;;;1999.90;999.90;;;;;;;12.87;100.00;-18251.16;5117517;28;20552;-40
2021/05/14 00:47:31;;;;;;;1999.90;999.90;;;;;;;12.82;100.00;-18249.81;5117350;28;20228;-36
2021/05/14 00:50:19;;;;;;;1999.90;999.90;;;;;;;12.83;100.00;-18250.22;5117981;28;20287;-37
2021/05/14 00:53:05;;;;;;;1999.90;999.90;;;;;;;12.81;100.00;-18249.56;5117642;28;20703;-35
2021/05/14 00:55:51;;;;;;;1999.90;999.90;;;;;;;12.64;100.00;-18245.16;5117584;28;20291;-38
2021/05/14 00:58:38;;;;;;;1999.90;999.90;;;;;;;12.41;100.00;-18239.13;5117393;28;20194;-37
2021/05/14 01:01:24;;;;;;;1999.90;999.90;;;;;;;12.67;100.00;-18245.94;5117556;28;20621;-36
2021/05/14 01:04:12;;;;;;;1999.90;999.90;;;;;;;12.54;100.00;-18242.47;5118029;28;20477;-39
2021/05/14 01:06:59;;;;;;;1999.90;999.90;;;;;;;12.42;100.00;-18239.41;5117396;28;20225;-38
2021/05/14 01:09:45;;;;;;;1999.90;999.90;;;;;;;12.42;100.00;-18239.53;5116192;28;20202;-35
2021/05/14 01:12:32;;;;;;;1999.90;999.90;;;;;;;12.87;100.00;-18251.16;5117038;28;20268;-39
2021/05/14 01:15:18;;;;;;;1999.90;999.90;;;;;;;12.95;100.00;-18253.44;5117879;28;20215;-37
2021/05/14 01:18:07;;;;;;;1999.90;999.90;;;;;;;13.06;100.00;-18256.34;5117564;28;20291;-39
2021/05/14 01:20:57;;;;;;;1999.90;999.90;;;;;;;13.03;100.00;-18255.56;5116831;28;20327;-39
2021/05/14 01:23:45;;;;;;;1999.90;999.90;;;;;;;13.13;100.00;-18258.09;5116377;28;20205;-39
2021/05/14 01:26:32;;;;;;;1999.90;999.90;;;;;;;13.04;100.00;-18255.69;5116744;28;20247;-35
2021/05/14 01:29:18;;;;;;;1999.90;999.90;;;;;;;13.14;100.00;-18258.38;5116997;28;20282;-35
2021/05/14 01:32:05;;;;;;;1999.90;999.90;;;;;;;13.10;100.00;-18257.28;5116778;28;20660;-39
2021/05/14 01:34:52;;;;;;;1999.90;999.90;;;;;;;13.19;100.00;-18259.56;5117446;28;20584;-35
2021/05/14 01:37:41;;;;;;;1999.90;999.90;;;;;;;13.23;100.00;-18260.63;5117007;28;20193;-34
2021/05/14 01:40:27;;;;;;;1999.90;999.90;;;;;;;13.24;100.00;-18260.91;5116361;28;20336;-40
2021/05/14 01:43:14;;;;;;;1999.90;999.90;;;;;;;13.21;100.00;-18260.09;5120095;28;20198;-37
2021/05/14 01:46:02;;;;;;;1999.90;999.90;;;;;;;13.20;100.00;-18259.97;5121401;28;20710;-34
2021/05/14 01:48:49;;;;;;;1999.90;999.90;;;;;;;13.24;100.00;-18260.91;5120735;28;20218;-37
2021/05/14 01:51:36;;;;;;;1999.90;999.90;;;;;;;13.30;100.00;-18262.50;5120313;28;20194;-34
2021/05/14 01:54:23;;;;;;;1999.90;999.90;;;;;;;13.36;100.00;-18264.09;5120677;28;20279;-37
2021/05/14 01:57:10;;;;;;;1999.90;999.90;;;;;;;13.20;100.00;-18259.84;5121646;28;20589;-35
2021/05/14 01:59:57;;;;;;;1999.90;999.90;;;;;;;13.30;100.00;-18262.50;5121269;28;20270;-35
2021/05/14 02:02:44;;;;;;;1999.90;999.90;;;;;;;13.16;100.00;-18258.91;5120105;28;20291;-37
2021/05/14 02:05:31;;;;;;;1999.90;999.90;;;;;;;13.12;100.00;-18257.81;5121418;28;20191;-38
2021/05/14 02:08:17;;;;;;;1999.90;999.90;;;;;;;13.08;100.00;-18256.75;5120950;28;20226;-35
2021/05/14 02:11:09;;;;;;;1999.90;999.90;;;;;;;13.21;100.00;-18260.09;5120513;28;20202;-37
2021/05/14 02:13:58;;;;;;;1999.90;999.90;;;;;;;12.92;100.00;-18252.50;5120521;28;20238;-37
2021/05/14 02:16:44;;;;;;;1999.90;999.90;;;;;;;13.20;100.00;-18259.97;5120473;28;20216;-34
2021/05/14 02:19:31;;;;;;;1999.90;999.90;;;;;;;13.17;100.00;-18259.03;5120450;28;20202;-35
2021/05/14 02:22:17;;;;;;;1999.90;999.90;;;;;;;13.24;100.00;-18261.03;5120715;28;20347;-39
2021/05/14 02:25:05;;;;;;;1999.90;999.90;;;;;;;13.17;100.00;-18259.16;5119983;28;20190;-40
2021/05/14 02:27:52;;;;;;;1999.90;999.90;;;;;;;12.99;100.00;-18254.34;5120491;28;20230;-37
2021/05/14 02:30:38;;;;;;;1999.90;999.90;;;;;;;13.17;100.00;-18259.16;5120471;28;20206;-38
2021/05/14 02:33:25;;;;;;;1999.90;999.90;;;;;;;13.20;100.00;-18259.97;5120420;28;20199;-34
2021/05/14 02:36:11;;;;;;;1999.90;999.90;;;;;;;13.16;100.00;-18258.78;5119731;28;20330;-34
2021/05/14 02:38:58;;;;;;;1999.90;999.90;;;;;;;13.11;100.00;-18257.56;5119338;28;20467;-40
2021/05/14 02:41:44;;;;;;;1999.90;999.90;;;;;;;13.16;100.00;-18258.78;5120910;28;20653;-34
2021/05/14 02:44:31;;;;;;;1999.90;999.90;;;;;;;13.21;100.00;-18260.09;5120536;28;20287;-35
2021/05/14 02:47:18;;;;;;;1999.90;999.90;;;;;;;13.05;100.00;-18256.09;5119801;28;20268;-39
2021/05/14 02:50:09;;;;;;;1999.90;999.90;;;;;;;13.17;100.00;-18259.16;5119767;28;20390;-40
2021/05/14 02:52:55;;;;;;;1999.90;999.90;;;;;;;13.08;100.00;-18256.91;5120012;28;20257;-39
2021/05/14 02:55:43;;;;;;;1999.90;999.90;;;;;;;13.07;100.00;-18256.50;5119421;28;20198;-39
2021/05/14 02:58:31;;;;;;;1999.90;999.90;;;;;;;12.80;100.00;-18249.28;5119785;28;20195;-37
2021/05/14 03:01:18;;;;;;;1999.90;999.90;;;;;;;13.03;100.00;-18255.56;5119574;28;20204;-35
2021/05/14 03:04:06;;;;;;;1999.90;999.90;;;;;;;13.05;100.00;-18256.09;5119664;28;20198;-38
2021/05/14 03:06:52;;;;;;;1999.90;999.90;;;;;;;12.95;100.00;-18253.28;5119845;28;20640;-35
2021/05/14 03:09:39;;;;;;;1999.90;999.90;;;;;;;13.12;100.00;-18257.81;5119718;28;20252;-34
2021/05/14 03:12:26;;;;;;;1999.90;999.90;;;;;;;12.37;100.00;-18238.22;5119480;28;20238;-33
2021/05/14 03:15:13;;;;;;;1999.90;999.90;;;;;;;12.06;100.00;-18229.94;5120059;28;20472;-33
2021/05/14 03:18:01;;;;;;;1999.90;999.90;;;;;;;12.11;100.00;-18231.13;5119960;28;20256;-36
2021/05/14 03:20:47;;;;;;;1999.90;999.90;;;;;;;12.20;100.00;-18233.66;5119026;28;20202;-36
2021/05/14 03:23:34;;;;;;;1999.90;999.90;;;;;;;12.11;100.00;-18231.13;5119293;28;20198;-36
2021/05/14 03:26:20;;;;;;;1999.90;999.90;;;;;;;12.17;100.00;-18232.75;5119401;28;20283;-35
2021/05/14 03:29:06;;;;;;;1999.90;999.90;;;;;;;12.18;100.00;-18233.00;5119549;28;20248;-38
2021/05/14 03:31:52;;;;;;;1999.90;999.90;;;;;;;12.08;100.00;-18230.59;5119173;28;20260;-37
2021/05/14 03:34:41;;;;;;;1999.90;999.90;;;;;;;12.03;100.00;-18229.25;5118956;28;20185;-36
2021/05/14 03:37:27;;;;;;;1999.90;999.90;;;;;;;11.94;100.00;-18226.88;5119155;28;20197;-38
2021/05/14 03:40:20;;;;;;;1999.90;999.90;;;;;;;12.14;100.00;-18231.94;5119675;28;20356;-36
2021/05/14 03:43:09;;;;;;;1999.90;999.90;;;;;;;11.80;100.00;-18222.97;5119088;28;20201;-39
2021/05/14 03:45:55;;;;;;;1999.90;999.90;;;;;;;11.91;100.00;-18225.94;5118527;28;20526;-36
2021/05/14 03:48:42;;;;;;;1999.90;999.90;;;;;;;11.75;100.00;-18221.78;5118742;28;20624;-38
2021/05/14 03:51:30;;;;;;;1999.90;999.90;;;;;;;11.80;100.00;-18222.97;5119474;28;20280;-35
2021/05/14 03:54:17;;;;;;;1999.90;999.90;;;;;;;11.59;100.00;-18217.63;5118572;28;20214;-33
2021/05/14 03:57:04;;;;;;;1999.90;999.90;;;;;;;11.77;100.00;-18222.19;5117147;28;20200;-37
2021/05/14 03:59:50;;;;;;;1999.90;999.90;;;;;;;11.80;100.00;-18222.97;5118037;28;20205;-36
2021/05/14 04:02:36;;;;;;;1999.90;999.90;;;;;;;11.86;100.00;-18224.72;5118386;28;20604;-39
2021/05/14 04:05:23;;;;;;;1999.90;999.90;;;;;;;11.84;100.00;-18224.06;5118742;28;20359;-35
2021/05/14 04:08:10;;;;;;;1999.90;999.90;;;;;;;11.54;100.00;-18216.31;5118440;28;20229;-36
2021/05/14 04:11:19;;;;;;;1999.90;999.90;;;;;;;11.69;100.00;-18220.31;5118118;28;20349;-40
2021/05/14 04:17:09;;;;;;;1999.90;999.90;;;;;;;11.93;100.00;-18226.59;5118283;28;20251;-34
2021/05/14 04:19:58;;;;;;;1999.90;999.90;;;;;;;11.71;100.00;-18220.84;5117900;28;20254;-34
2021/05/14 04:22:44;;;;;;;1999.90;999.90;;;;;;;11.91;100.00;-18225.94;5118471;28;20198;-36
2021/05/14 04:25:36;;;;;;;1999.90;999.90;;;;;;;11.65;100.00;-18219.09;5118614;28;20253;-37
2021/05/14 04:28:29;;;;;;;1999.90;999.90;;;;;;;11.96;100.00;-18227.41;5117828;28;20219;-35
2021/05/14 04:31:15;;;;;;;1999.90;999.90;;;;;;;11.93;100.00;-18226.59;5117850;28;20193;-39
2021/05/14 04:34:04;;;;;;;1999.90;999.90;;;;;;;11.77;100.00;-18222.19;5118677;28;20464;-36
2021/05/14 04:36:51;;;;;;;1999.90;999.90;;;;;;;11.90;100.00;-18225.66;5117572;28;20272;-36
2021/05/14 04:39:37;;;;;;;1999.90;999.90;;;;;;;12.00;100.00;-18228.47;5117491;28;20213;-33
2021/05/14 04:42:24;;;;;;;1999.90;999.90;;;;;;;12.27;100.00;-18235.53;5117071;28;20764;-36
2021/05/14 04:45:12;;;;;;;1999.90;999.90;;;;;;;12.03;100.00;-18229.25;5118241;28;20205;-38
2021/05/14 04:47:59;;;;;;;1999.90;999.90;;;;;;;11.98;100.00;-18227.94;5118119;28;20224;-40
2021/05/14 04:50:45;;;;;;;1999.90;999.90;;;;;;;11.76;100.00;-18221.91;5117334;28;20198;-37
2021/05/14 04:53:32;;;;;;;1999.90;999.90;;;;;;;11.93;100.00;-18226.59;5117567;28;20564;-38
2021/05/14 04:56:18;;;;;;;1999.90;999.90;;;;;;;12.04;100.00;-18229.53;5117736;28;20202;-37
2021/05/14 04:59:05;;;;;;;1999.90;999.90;;;;;;;12.03;100.00;-18229.25;5117549;28;20264;-38
2021/05/14 05:01:52;;;;;;;1999.90;999.90;;;;;;;11.67;100.00;-18219.78;5116747;28;20333;-33
2021/05/14 05:04:42;;;;;;;1999.90;999.90;;;;;;;11.95;100.00;-18227.13;5116894;28;20280;-40
2021/05/14 05:07:30;;;;;;;1999.90;999.90;;;;;;;12.04;100.00;-18229.53;5117377;28;20222;-34
2021/05/14 05:10:18;;;;;;;1999.90;999.90;;;;;;;12.38;100.00;-18238.47;5117714;28;20492;-36
2021/05/14 05:13:04;;;;;;;1999.90;999.90;;;;;;;11.88;100.00;-18225.13;5116914;28;20245;-37
2021/05/14 05:15:51;;;;;;;1999.90;999.90;;;;;;;12.05;100.00;-18229.78;5117180;28;20430;-35
2021/05/14 05:18:38;;;;;;;1999.90;999.90;;;;;;;12.28;100.00;-18235.66;5116813;28;20585;-39
2021/05/14 05:21:26;;;;;;;1999.90;999.90;;;;;;;12.19;100.00;-18233.28;5117308;28;20264;-38
2021/05/14 05:24:13;;;;;;;1999.90;999.90;;;;;;;11.67;100.00;-18219.63;5117699;28;20643;-36
2021/05/14 05:26:59;;;;;;;1999.90;999.90;;;;;;;12.21;100.00;-18233.81;5117152;28;20351;-39
2021/05/14 05:29:49;;;;;;;1999.90;999.90;;;;;;;12.21;100.00;-18233.81;5116830;28;20186;-39
2021/05/14 05:32:36;;;;;;;1999.90;999.90;;;;;;;12.15;100.00;-18232.34;5116679;28;20299;-36
2021/05/14 05:35:22;;;;;;;1999.90;999.90;;;;;;;11.75;100.00;-18221.78;5108541;28;20269;-37
2021/05/14 05:38:27;;;;;;;1999.90;999.90;;;;;;;11.60;100.00;-18217.91;5097434;28;20187;-40
2021/05/14 05:41:19;;;;;;;1999.90;999.90;;;;;;;11.99;100.00;-18228.19;5096234;28;20218;-44
2021/05/14 05:44:06;;;;;;;1999.90;999.90;;;;;;;11.71;100.00;-18220.84;5095956;28;20289;-34
2021/05/14 05:46:52;;;;;;;1999.90;999.90;;;;;;;12.41;100.00;-18239.28;5096254;28;20309;-34
2021/05/14 05:49:40;;;;;;;1999.90;999.90;;;;;;;12.25;100.00;-18234.88;5096316;28;20230;-32
2021/05/14 05:52:26;;;;;;;1999.90;999.90;;;;;;;12.23;100.00;-18234.34;5095626;28;20195;-36
2021/05/14 05:55:13;;;;;;;1999.90;999.90;;;;;;;12.50;100.00;-18241.53;5096107;28;20203;-36
2021/05/14 05:58:05;;;;;;;1999.90;999.90;;;;;;;12.77;100.00;-18248.63;5096822;28;20296;-37
2021/05/14 06:00:51;;;;;;;1999.90;999.90;;;;;;;12.42;100.00;-18239.53;5096291;28;20223;-38
2021/05/14 06:03:37;;;;;;;1999.90;999.90;;;;;;;12.57;100.00;-18243.41;5096517;28;20195;-34
2021/05/14 06:06:24;;;;;;;1999.90;999.90;;;;;;;12.74;100.00;-18247.94;5096498;28;20492;-34
2021/05/14 06:09:10;;;;;;;1999.90;999.90;;;;;;;12.46;100.00;-18240.34;5096356;28;20231;-33
2021/05/14 06:11:57;;;;;;;1999.90;999.90;;;;;;;12.90;100.00;-18252.09;5096533;28;20308;-39
2021/05/14 06:14:44;;;;;;;1999.90;999.90;;;;;;;12.46;100.00;-18240.34;5095999;28;20246;-35
2021/05/14 06:17:30;;;;;;;1999.90;999.90;;;;;;;13.00;100.00;-18254.75;5096480;28;20195;-33
2021/05/14 06:20:20;;;;;;;1999.90;999.90;;;;;;;12.65;100.00;-18245.56;5096358;28;20203;-35
2021/05/14 06:23:08;;;;;;;1999.90;999.90;;;;;;;13.15;100.00;-18258.63;5096184;28;20643;-35
2021/05/14 06:25:54;;;;;;;1999.90;999.90;;;;;;;13.16;100.00;-18258.91;5096584;28;20601;-34
2021/05/14 06:28:40;;;;;;;1999.90;999.90;;;;;;;13.39;100.00;-18265.03;5097614;28;20230;-38
2021/05/14 06:31:26;;;;;;;1999.90;999.90;;;;;;;13.41;100.00;-18265.56;5100021;28;20304;-34
2021/05/14 06:34:13;;;;;;;1999.90;999.90;;;;;;;13.39;100.00;-18265.03;5099589;28;20199;-37
2021/05/14 06:37:00;;;;;;;1999.90;999.90;;;;;;;13.51;100.00;-18267.97;5099875;28;20215;-35
2021/05/14 06:39:55;;;;;;;1999.90;999.90;;;;;;;13.12;100.00;-18257.81;5100045;28;20336;-39
2021/05/14 06:42:42;;;;;;;1999.90;999.90;;;;;;;13.43;100.00;-18265.97;5099417;28;20352;-38
2021/05/14 06:45:28;;;;;;;1999.90;999.90;;;;;;;13.31;100.00;-18262.91;5099794;28;20593;-37
2021/05/14 06:48:18;;;;;;;1999.90;999.90;;;;;;;13.59;100.00;-18270.09;5099506;28;20226;-36
2021/05/14 06:51:05;;;;;;;1999.90;999.90;;;;;;;13.45;100.00;-18266.50;5099780;28;20481;-36
2021/05/14 06:53:54;;;;;;;1999.90;999.90;;;;;;;13.15;100.00;-18258.63;5099124;28;20254;-37
2021/05/14 06:56:42;;;;;;;1999.90;999.90;;;;;;;13.19;100.00;-18259.69;5099223;28;20257;-39
2021/05/14 06:59:30;;;;;;;1999.90;999.90;;;;;;;12.53;100.00;-18242.34;5099598;28;20600;-37
2021/05/14 07:02:17;;;;;;;1999.90;999.90;;;;;;;13.07;100.00;-18256.50;5098889;28;20312;-38
2021/05/14 07:05:10;;;;;;;1999.90;999.90;;;;;;;13.29;100.00;-18262.38;5098961;28;20195;-36
2021/05/14 07:07:57;;;;;;;1999.90;999.90;;;;;;;13.47;100.00;-18267.03;5098773;28;20253;-39
2021/05/14 07:10:43;;;;;;;1999.90;999.90;;;;;;;13.28;100.00;-18262.09;5098828;28;20195;-40
2021/05/14 07:13:31;;;;;;;1999.90;999.90;;;;;;;13.43;100.00;-18266.09;5098551;28;20641;-38
2021/05/14 07:16:17;;;;;;;1999.90;999.90;;;;;;;13.61;100.00;-18270.63;5099160;28;20204;-36
2021/05/14 07:19:11;;;;;;;1999.90;999.90;;;;;;;13.68;100.00;-18272.63;5098903;28;20199;-38
2021/05/14 07:21:58;;;;;;;1999.90;999.90;;;;;;;13.86;100.00;-18277.31;5098506;28;20647;-36
2021/05/14 07:24:46;;;;;;;1999.90;999.90;;;;;;;14.11;100.00;-18283.97;5098560;28;20195;-36
2021/05/14 07:27:35;;;;;;;1999.90;999.90;;;;;;;14.06;100.00;-18282.50;5098335;28;20199;-34
2021/05/14 07:30:27;;;;;;;1999.90;999.90;;;;;;;14.17;100.00;-18285.44;5098475;28;20352;-39
2021/05/14 07:33:16;;;;;;;1999.90;999.90;;;;;;;14.42;100.00;-18291.97;5098501;28;20267;-37
2021/05/14 07:36:07;;;;;;;1999.90;999.90;;;;;;;14.42;100.00;-18291.97;5097980;28;20486;-35
2021/05/14 07:38:54;;;;;;;1999.90;999.90;;;;;;;14.35;100.00;-18290.09;5098126;28;20210;-38
2021/05/14 07:41:40;;;;;;;1999.90;999.90;;;;;;;13.76;100.00;-18274.78;5097809;28;20199;-37
2021/05/14 07:44:26;;;;;;;1999.90;999.90;;;;;;;14.11;100.00;-18283.97;5097955;28;20191;-35
2021/05/14 07:47:14;;;;;;;1999.90;999.90;;;;;;;14.34;100.00;-18289.97;5097621;28;20191;-33
2021/05/14 07:50:03;;;;;;;1999.90;999.90;;;;;;;14.71;100.00;-18299.56;5097501;28;20316;-39
2021/05/14 07:52:50;;;;;;;1999.90;999.90;;;;;;;14.76;100.00;-18300.91;5098392;28;20292;-35
2021/05/14 07:55:36;;;;;;;1999.90;999.90;;;;;;;14.85;100.00;-18303.16;5098575;28;20195;-36
2021/05/14 07:58:22;;;;;;;1999.90;999.90;;;;;;;14.31;100.00;-18289.03;5098203;28;20345;-34
2021/05/14 08:01:12;;;;;;;1999.90;999.90;;;;;;;14.19;100.00;-18285.97;5108352;28;20202;-35
2021/05/14 08:04:02;;;;;;;1999.90;999.90;;;;;;;13.98;100.00;-18280.38;5118752;28;20210;-36
2021/05/14 08:06:49;;;;;;;1999.90;999.90;;;;;;;13.88;100.00;-18277.84;5118843;28;20202;-38
2021/05/14 08:09:35;;;;;;;1999.90;999.90;;;;;;;14.22;100.00;-18286.63;5117653;28;20226;-38
2021/05/14 08:12:22;;;;;;;1999.90;999.90;;;;;;;14.87;100.00;-18303.69;5117987;28;20284;-35
2021/05/14 08:15:11;;;;;;;1999.90;999.90;;;;;;;14.25;100.00;-18287.44;5118080;28;20344;-33
2021/05/14 08:17:57;;;;;;;1999.90;999.90;;;;;;;14.79;100.00;-18301.81;5117666;28;20608;-35
2021/05/14 08:20:49;;;;;;;1999.90;999.90;;;;;;;13.77;100.00;-18274.91;5117410;28;20203;-38
2021/05/14 08:23:35;;;;;;;1999.90;999.90;;;;;;;14.16;100.00;-18285.03;5117143;28;20222;-34
2021/05/14 08:26:25;;;;;;;1999.90;999.90;;;;;;;14.13;100.00;-18284.50;5117729;28;20289;-39
2021/05/14 08:29:12;;;;;;;1999.90;999.90;;;;;;;14.98;100.00;-18306.75;5117636;28;20221;-39
2021/05/14 08:31:58;;;;;;;1999.90;999.90;;;;;;;14.37;100.00;-18290.78;5116644;28;20197;-37
2021/05/14 08:34:45;;;;;;;1999.90;999.90;;;;;;;14.32;100.00;-18289.44;5117484;28;20336;-39
2021/05/14 08:37:36;;;;;;;1999.90;999.90;;;;;;;14.23;100.00;-18287.03;5117666;28;20195;-37
2021/05/14 08:40:24;;;;;;;1999.90;999.90;;;;;;;14.63;100.00;-18297.56;5117235;28;20332;-36
2021/05/14 08:43:13;;;;;;;1999.90;999.90;;;;;;;13.98;100.00;-18280.38;5117127;28;20195;-35
2021/05/14 08:46:02;;;;;;;1999.90;999.90;;;;;;;14.70;100.00;-18299.31;5117372;28;20194;-35
2021/05/14 08:48:48;;;;;;;1999.90;999.90;;;;;;;14.54;100.00;-18295.03;5117679;28;20234;-38
2021/05/14 08:51:38;;;;;;;1999.90;999.90;;;;;;;15.24;100.00;-18313.41;5116649;28;20568;-37
2021/05/14 08:54:29;;;;;;;1999.90;999.90;;;;;;;14.44;100.00;-18292.63;5117621;28;20737;-39
2021/05/14 08:57:21;;;;;;;1999.90;999.90;;;;;;;15.14;100.00;-18311.03;5117682;28;20206;-35
2021/05/14 09:00:09;;;;;;;1999.90;999.90;;;;;;;16.00;100.00;-18333.38;5117493;28;20240;-37
2021/05/14 09:02:56;;;;;;;1999.90;999.90;;;;;;;15.91;100.00;-18331.13;5117176;28;20605;-37
2021/05/14 09:05:47;;;;;;;1999.90;999.90;;;;;;;15.14;100.00;-18311.03;5117471;28;20225;-37
2021/05/14 09:08:34;;;;;;;1999.90;999.90;;;;;;;15.21;100.00;-18312.63;5116323;28;20273;-38
2021/05/14 09:11:45;;;;;;;1999.90;999.90;;;;;;;15.77;100.00;-18327.53;5117332;28;20199;-39
2021/05/14 09:14:34;;;;;;;1999.90;999.90;;;;;;;15.62;100.00;-18323.41;5116783;28;20711;-39
2021/05/14 09:17:26;;;;;;;1999.90;999.90;;;;;;;15.89;100.00;-18330.59;5117464;28;20203;-35
2021/05/14 09:20:28;;;;;;;1999.90;999.90;;;;;;;15.88;100.00;-18330.19;5115114;28;20594;-35
2021/05/14 09:23:32;;;;;;;1999.90;999.90;;;;;;;16.46;100.00;-18345.50;5115292;28;20729;-39
2021/05/14 09:26:19;;;;;;;1999.90;999.90;;;;;;;16.99;100.00;-18359.47;5117362;28;20297;-40
2021/05/14 09:29:11;;;;;;;1999.90;999.90;;;;;;;16.40;100.00;-18343.91;5116175;28;20372;-38
2021/05/14 09:32:32;;;;;;;1999.90;999.90;;;;;;;16.64;100.00;-18350.16;5116658;28;20209;-36
2021/05/14 09:35:25;;;;;;;1999.90;999.90;;;;;;;16.27;100.00;-18340.44;5116041;28;20194;-39
2021/05/14 09:38:11;;;;;;;1999.90;999.90;;;;;;;15.44;100.00;-18318.88;5116486;28;20192;-36
2021/05/14 09:41:00;;;;;;;1999.90;999.90;;;;;;;15.90;100.00;-18330.72;5116449;28;20202;-35
2021/05/14 09:43:54;;;;;;;1999.90;999.90;;;;;;;16.71;100.00;-18352.16;5116637;28;20199;-37
2021/05/14 09:46:45;;;;;;;1999.90;999.90;;;;;;;16.53;100.00;-18347.34;5115998;28;20214;-35
2021/05/14 09:49:36;;;;;;;1999.90;999.90;;;;;;;16.35;100.00;-18342.56;5116780;28;20273;-37
2021/05/14 09:52:26;;;;;;;1999.90;999.90;;;;;;;16.39;100.00;-18343.63;5116538;28;20212;-38
2021/05/14 09:55:24;;;;;;;1999.90;999.90;;;;;;;16.83;100.00;-18355.34;5116621;28;20614;-39
2021/05/14 09:58:19;;;;;;;1999.90;999.90;;;;;;;17.07;100.00;-18361.47;5106904;28;20203;-39
2021/05/14 10:01:08;;;;;;;1999.90;999.90;;;;;;;16.62;100.00;-18349.63;5096118;28;20195;-36
2021/05/14 10:03:56;;;;;;;1999.90;999.90;;;;;;;16.24;100.00;-18339.66;5097975;28;20260;-39
2021/05/14 10:06:45;;;;;;;1999.90;999.90;;;;;;;17.00;100.00;-18359.59;5099591;28;20201;-38
2021/05/14 10:09:31;;;;;;;1999.90;999.90;;;;;;;18.13;100.00;-18389.38;5100221;28;20292;-35
2021/05/14 10:12:19;;;;;;;1999.90;999.90;;;;;;;18.26;100.00;-18392.69;5099999;28;20211;-40
2021/05/14 10:15:09;;;;;;;1999.90;999.90;;;;;;;17.69;100.00;-18377.81;5103022;28;20198;-37
2021/05/14 10:17:58;;;;;;;1999.90;999.90;;;;;;;17.91;100.00;-18383.53;5120221;27;20206;-37
2021/05/14 10:20:50;;;;;;;1999.90;999.90;;;;;;;18.06;100.00;-18387.50;5121027;28;20215;-35
2021/05/14 10:23:37;;;;;;;1999.90;999.90;;;;;;;17.72;100.00;-18378.47;5119913;28;20207;-35
2021/05/14 10:26:38;;;;;;;1999.90;999.90;;;;;;;16.01;100.00;-18333.78;5120426;28;20189;-39
2021/05/14 10:29:37;;;;;;;1999.90;999.90;;;;;;;16.60;100.00;-18349.22;5120117;28;20266;-36
2021/05/14 10:32:51;;;;;;;1999.90;999.90;;;;;;;15.60;100.00;-18322.88;5120829;28;20204;-34
2021/05/14 10:35:40;;;;;;;1999.90;999.90;;;;;;;15.39;100.00;-18317.53;5120359;28;20265;-33
2021/05/14 10:38:31;;;;;;;1999.90;999.90;;;;;;;15.93;100.00;-18331.66;5120568;28;20201;-37
2021/05/14 10:41:28;;;;;;;1999.90;999.90;;;;;;;16.68;100.00;-18351.34;5120252;28;20228;-35
2021/05/14 10:44:18;;;;;;;1999.90;999.90;;;;;;;16.70;100.00;-18351.75;5119958;28;20197;-39
2021/05/14 10:47:46;;;;;;;1999.90;999.90;;;;;;;16.20;100.00;-18338.72;5119941;28;20226;-39
2021/05/14 10:50:37;;;;;;;1999.90;999.90;;;;;;;16.38;100.00;-18343.38;5118996;28;20232;-38
2021/05/14 10:53:34;;;;;;;1999.90;999.90;;;;;;;16.42;100.00;-18344.56;5119689;28;20255;-36
2021/05/14 10:56:30;;;;;;;1999.90;999.90;;;;;;;16.70;100.00;-18351.75;5120086;28;20253;-39
2021/05/14 10:59:29;;;;;;;1999.90;999.90;;;;;;;17.61;98.81;-18375.69;5119759;28;20187;-36
2021/05/14 11:02:28;;;;;;;1999.90;999.90;;;;;;;18.91;94.75;-18409.69;5119377;28;20197;-38
2021/05/14 11:05:27;;;;;;;1999.90;999.90;;;;;;;18.80;98.28;-18406.75;5119403;28;20201;-35
2021/05/14 11:08:46;;;;;;;1999.90;999.90;;;;;;;18.56;100.00;-18400.53;5119594;28;20331;-39
2021/05/14 11:11:35;;;;;;;1999.90;999.90;;;;;;;19.74;91.15;-18431.31;5099053;28;20617;-33
2021/05/14 11:14:22;;;;;;;1999.90;999.90;;;;;;;17.96;100.00;-18384.84;5098556;28;20518;-34
2021/05/14 11:17:10;;;;;;;1999.90;999.90;;;;;;;18.35;100.00;-18395.06;5098352;28;20257;-36
2021/05/14 11:19:59;;;;;;;1999.90;999.90;;;;;;;17.54;100.00;-18373.81;5098740;28;20291;-37
2021/05/14 11:22:48;;;;;;;1999.90;999.90;;;;;;;16.77;100.00;-18353.75;5098565;28;20196;-37
2021/05/14 11:25:45;;;;;;;1999.90;999.90;;;;;;;18.03;100.00;-18386.56;5098537;28;20203;-37
2021/05/14 11:28:48;;;;;;;1999.90;999.90;;;;;;;17.89;100.00;-18383.13;5097947;28;20605;-35
2021/05/14 11:31:39;;;;;;;1999.90;999.90;;;;;;;17.61;100.00;-18375.69;5098015;28;20199;-33
2021/05/14 11:34:30;;;;;;;1999.90;999.90;;;;;;;18.75;100.00;-18405.44;5098662;28;20343;-33
2021/05/14 11:37:18;;;;;;;1999.90;999.90;;;;;;;19.35;98.66;-18421.09;5098769;28;20207;-37
2021/05/14 11:40:17;;;;;;;1999.90;999.90;;;;;;;18.13;97.15;-18389.38;5098107;28;20206;-36
2021/05/14 11:43:11;;;;;;;1999.90;999.90;;;;;;;18.24;98.49;-18392.16;5098480;28;20334;-38
2021/05/14 11:45:58;;;;;;;1999.90;999.90;;;;;;;18.71;87.48;-18404.50;5097871;28;20239;-36
2021/05/14 11:48:47;;;;;;;1999.90;999.90;;;;;;;18.65;88.71;-18402.78;5098532;28;20210;-36
2021/05/14 11:51:34;;;;;;;1999.90;999.90;;;;;;;19.90;84.65;-18435.56;5097271;28;20483;-39
2021/05/14 11:54:23;;;;;;;1999.90;999.90;;;;;;;18.97;79.01;-18411.16;5099142;28;20195;-39
2021/05/14 11:57:26;;;;;;;1999.90;999.90;;;;;;;20.01;83.95;-18438.47;5119052;28;20715;-32
2021/05/14 12:00:15;;;;;;;1999.90;999.90;;;;;;;19.73;75.12;-18431.03;5112358;28;20605;-35
2021/05/14 12:03:10;;;;;;;1999.90;999.90;;;;;;;19.86;75.11;-18434.50;5098563;28;20196;-36
2021/05/14 12:06:06;;;;;;;1999.90;999.90;;;;;;;19.98;74.87;-18437.69;5098613;28;20300;-37
2021/05/14 12:09:01;;;;;;;1999.90;999.90;;;;;;;18.56;91.74;-18400.66;5097719;28;20199;-38
2021/05/14 12:11:52;;;;;;;1999.90;999.90;;;;;;;17.78;91.74;-18380.06;5102588;28;20301;-37
2021/05/14 12:14:40;;;;;;;1999.90;999.90;;;;;;;17.35;94.01;-18368.78;5117728;27;20249;-36
2021/05/14 12:17:27;;;;;;;1999.90;999.90;;;;;;;17.34;91.21;-18368.63;5118582;28;20443;-35
2021/05/14 12:20:33;;;;;;;1999.90;999.90;;;;;;;17.40;89.15;-18370.22;5118496;28;20195;-37